createdAt,value
2019-04-20T00:01:29.419Z,14.00
2019-04-20T00:03:57.051Z,14.00
2019-04-20T00:06:27.303Z,14.00
2019-04-20T00:09:08.766Z,13.90
2019-04-20T00:11:45.963Z,13.90
2019-04-20T00:14:16.167Z,14.00
2019-04-20T00:16:42.138Z,13.90
2019-04-20T00:19:15.340Z,13.90
2019-04-20T00:21:57.524Z,13.80
2019-04-20T00:24:37.158Z,13.90
2019-04-20T00:27:32.759Z,13.80
2019-04-20T00:30:01.563Z,13.80
2019-04-20T00:32:29.438Z,13.80
2019-04-20T00:34:50.667Z,13.80
2019-04-20T00:37:23.354Z,13.80
2019-04-20T00:39:57.432Z,13.80
2019-04-20T00:42:38.001Z,13.80
2019-04-20T00:45:08.489Z,13.80
2019-04-20T00:47:48.909Z,13.80
2019-04-20T00:50:29.851Z,13.70
2019-04-20T00:52:55.597Z,13.60
2019-04-20T00:55:17.018Z,13.60
2019-04-20T00:57:54.835Z,13.50
2019-04-20T01:00:36.900Z,13.60
2019-04-20T01:03:09.569Z,13.60
2019-04-20T01:05:58.245Z,13.50
2019-04-20T01:08:21.331Z,13.40
2019-04-20T01:10:55.741Z,13.30
2019-04-20T01:13:27.200Z,13.30
2019-04-20T01:16:06.321Z,13.40
2019-04-20T01:18:32.127Z,13.40
2019-04-20T01:21:06.737Z,13.40
2019-04-20T01:23:42.916Z,13.50
2019-04-20T01:26:15.561Z,13.40
2019-04-20T01:28:54.158Z,13.30
2019-04-20T01:31:24.162Z,13.30
2019-04-20T01:33:58.780Z,13.30
2019-04-20T01:36:43.013Z,13.30
2019-04-20T01:39:07.552Z,13.30
2019-04-20T01:41:28.624Z,13.30
2019-04-20T01:44:00.502Z,13.30
2019-04-20T01:46:33.741Z,13.30
2019-04-20T01:49:11.513Z,13.30
2019-04-20T01:51:46.985Z,13.30
2019-04-20T01:54:29.797Z,13.20
2019-04-20T01:57:04.159Z,13.20
2019-04-20T01:59:52.076Z,13.20
2019-04-20T02:02:29.559Z,13.20
2019-04-20T02:05:13.862Z,13.10
2019-04-20T02:07:43.766Z,13.10
2019-04-20T02:10:14.839Z,13.00
2019-04-20T02:12:51.375Z,12.90
2019-04-20T02:15:29.319Z,13.00
2019-04-20T02:18:04.781Z,13.00
2019-04-20T02:20:43.907Z,12.90
2019-04-20T02:23:12.342Z,12.90
2019-04-20T02:25:31.143Z,12.90
2019-04-20T02:28:23.132Z,12.90
2019-04-20T02:31:14.809Z,12.80
2019-04-20T02:36:27.591Z,12.90
2019-04-20T02:39:21.080Z,12.90
2019-04-20T02:41:44.816Z,12.90
2019-04-20T02:44:31.907Z,12.90
2019-04-20T02:46:49.503Z,12.80
2019-04-20T02:49:34.142Z,12.80
2019-04-20T02:51:52.690Z,12.80
2019-04-20T02:59:54.049Z,12.70
2019-04-20T03:01:52.168Z,12.70
2019-04-20T03:04:20.356Z,12.70
2019-04-20T03:06:58.397Z,12.70
2019-04-20T03:09:36.908Z,12.70
2019-04-20T03:12:08.154Z,12.70
2019-04-20T03:14:34.891Z,12.60
2019-04-20T03:17:17.725Z,12.60
2019-04-20T03:19:41.168Z,12.50
2019-04-20T03:22:24.632Z,12.50
2019-04-20T03:24:54.444Z,12.50
2019-04-20T03:27:37.200Z,12.40
2019-04-20T03:31:15.726Z,12.40
2019-04-20T03:35:44.949Z,12.40
2019-04-20T03:38:15.271Z,12.40
2019-04-20T03:40:40.167Z,12.50
2019-04-20T03:42:59.550Z,12.50
2019-04-20T03:45:39.568Z,12.50
2019-04-20T03:48:16.023Z,12.50
2019-04-20T03:50:58.458Z,12.50
2019-04-20T03:53:29.877Z,12.50
2019-04-20T03:56:11.726Z,12.40
2019-04-20T03:58:47.311Z,12.40
2019-04-20T04:01:55.586Z,12.50
2019-04-20T04:04:37.175Z,12.50
2019-04-20T04:06:50.917Z,12.40
2019-04-20T04:09:28.661Z,12.40
2019-04-20T04:12:03.789Z,12.40
2019-04-20T04:14:24.024Z,12.50
2019-04-20T04:16:57.931Z,12.50
2019-04-20T04:19:31.788Z,12.60
2019-04-20T04:22:15.131Z,12.60
2019-04-20T04:24:45.134Z,12.50
2019-04-20T04:27:30.849Z,12.40
2019-04-20T04:29:58.310Z,12.40
2019-04-20T04:33:03.115Z,12.40
2019-04-20T04:35:03.095Z,12.40
2019-04-20T04:37:36.447Z,12.40
2019-04-20T04:40:20.965Z,12.30
2019-04-20T04:42:46.511Z,12.30
2019-04-20T04:45:04.910Z,12.30
2019-04-20T04:47:32.654Z,12.30
2019-04-20T04:50:11.630Z,12.30
2019-04-20T04:52:45.359Z,12.30
2019-04-20T04:55:23.748Z,12.40
2019-04-20T04:57:45.361Z,12.40
2019-04-20T05:00:25.565Z,12.30
2019-04-20T05:02:56.123Z,12.30
2019-04-20T05:05:54.601Z,12.40
2019-04-20T05:08:18.779Z,12.40
2019-04-20T05:10:43.715Z,12.50
2019-04-20T05:13:15.755Z,12.50
2019-04-20T05:16:01.326Z,12.50
2019-04-20T05:18:45.000Z,12.50
2019-04-20T05:21:26.045Z,12.50
2019-04-20T05:24:08.528Z,12.50
2019-04-20T05:26:55.669Z,12.50
2019-04-20T05:29:14.478Z,12.60
2019-04-20T05:31:48.630Z,12.60
2019-04-20T05:34:38.769Z,12.70
2019-04-20T05:37:18.025Z,12.70
2019-04-20T05:39:41.216Z,12.80
2019-04-20T05:42:19.151Z,12.80
2019-04-20T05:44:49.839Z,12.80
2019-04-20T05:47:21.426Z,12.80
2019-04-20T05:49:49.981Z,12.80
2019-04-20T05:52:40.222Z,12.80
2019-04-20T05:55:02.445Z,12.80
2019-04-20T05:57:40.165Z,12.90
2019-04-20T06:00:08.120Z,12.90
2019-04-20T06:02:46.541Z,12.90
2019-04-20T06:05:17.835Z,13.00
2019-04-20T06:07:48.823Z,13.00
2019-04-20T06:10:27.548Z,13.00
2019-04-20T06:12:54.169Z,13.10
2019-04-20T06:15:53.884Z,13.10
2019-04-20T06:18:26.955Z,13.20
2019-04-20T06:21:15.801Z,13.20
2019-04-20T06:23:53.195Z,13.20
2019-04-20T06:28:46.352Z,13.30
2019-04-20T06:31:42.153Z,13.30
2019-04-20T06:37:09.941Z,13.40
2019-04-20T06:40:29.361Z,13.30
2019-04-20T06:42:16.796Z,13.40
2019-04-20T06:45:02.209Z,13.40
2019-04-20T06:47:15.812Z,13.40
2019-04-20T06:49:42.207Z,13.40
2019-04-20T06:52:27.666Z,13.40
2019-04-20T06:55:08.683Z,13.50
2019-04-20T06:57:44.998Z,13.50
2019-04-20T07:00:35.124Z,13.50
2019-04-20T07:03:05.753Z,13.50
2019-04-20T07:05:28.648Z,13.50
2019-04-20T07:08:16.846Z,13.50
2019-04-20T07:10:37.696Z,13.40
2019-04-20T07:13:02.660Z,13.50
2019-04-20T07:15:41.189Z,13.50
2019-04-20T07:18:29.830Z,13.50
2019-04-20T07:21:27.108Z,13.50
2019-04-20T07:23:47.914Z,13.60
2019-04-20T07:26:26.815Z,13.60
2019-04-20T07:28:54.464Z,13.50
2019-04-20T07:31:24.635Z,13.60
2019-04-20T07:33:56.829Z,13.50
2019-04-20T07:36:32.282Z,13.60
2019-04-20T07:39:08.941Z,13.50
2019-04-20T07:41:42.948Z,13.60
2019-04-20T07:44:12.639Z,13.60
2019-04-20T07:46:59.841Z,13.60
2019-04-20T07:49:15.988Z,13.50
2019-04-20T07:51:33.886Z,13.60
2019-04-20T07:54:28.261Z,13.60
2019-04-20T07:56:53.680Z,13.60
2019-04-20T07:59:19.076Z,13.60
2019-04-20T08:02:32.423Z,13.60
2019-04-20T08:05:03.403Z,13.60
2019-04-20T08:07:24.806Z,13.60
2019-04-20T08:09:57.349Z,13.60
2019-04-20T08:12:55.732Z,13.60
2019-04-20T08:15:35.128Z,13.60
2019-04-20T08:18:01.233Z,13.60
2019-04-20T08:20:27.983Z,13.60
2019-04-20T08:23:17.529Z,13.60
2019-04-20T08:25:27.689Z,13.60
2019-04-20T08:28:24.996Z,13.60
2019-04-20T08:31:24.581Z,13.60
2019-04-20T08:34:13.644Z,13.60
2019-04-20T08:36:43.122Z,13.60
2019-04-20T08:41:53.474Z,13.60
2019-04-20T08:44:41.572Z,13.60
2019-04-20T08:47:07.308Z,13.60
2019-04-20T08:49:29.607Z,13.70
2019-04-20T08:52:20.970Z,13.70
2019-04-20T08:54:30.986Z,13.70
2019-04-20T08:56:52.230Z,13.60
2019-04-20T08:59:18.888Z,13.60
2019-04-20T09:01:51.102Z,13.70
2019-04-20T09:04:34.848Z,13.60
2019-04-20T09:07:05.555Z,13.70
2019-04-20T09:09:49.428Z,13.70
2019-04-20T09:12:19.125Z,13.70
2019-04-20T09:14:39.634Z,13.70
2019-04-20T09:17:40.953Z,13.70
2019-04-20T09:20:14.289Z,13.70
2019-04-20T09:23:16.682Z,13.70
2019-04-20T09:28:22.307Z,13.70
2019-04-20T09:31:02.580Z,13.70
2019-04-20T09:33:46.983Z,13.70
2019-04-20T09:36:23.946Z,13.70
2019-04-20T09:39:08.648Z,13.70
2019-04-20T09:41:59.262Z,13.70
2019-04-20T09:44:13.427Z,13.70
2019-04-20T09:46:50.015Z,13.70
2019-04-20T09:49:32.461Z,13.70
2019-04-20T09:52:07.895Z,13.70
2019-04-20T09:54:41.360Z,13.70
2019-04-20T09:57:22.912Z,13.70
2019-04-20T09:59:49.898Z,13.70
2019-04-20T10:02:10.276Z,13.70
2019-04-20T10:04:37.967Z,13.70
2019-04-20T10:07:15.787Z,13.70
2019-04-20T10:09:45.283Z,13.80
2019-04-20T10:12:17.511Z,13.80
2019-04-20T10:14:50.874Z,13.80
2019-04-20T10:17:23.557Z,13.70
2019-04-20T10:19:55.641Z,13.80
2019-04-20T10:22:26.910Z,13.80
2019-04-20T10:24:58.479Z,13.70
2019-04-20T10:27:30.730Z,13.70
2019-04-20T10:30:04.705Z,13.80
2019-04-20T10:32:40.353Z,13.80
2019-04-20T10:35:09.014Z,13.80
2019-04-20T10:37:47.231Z,13.80
2019-04-20T10:40:34.395Z,13.80
2019-04-20T10:42:53.043Z,13.80
2019-04-20T10:45:26.688Z,13.80
2019-04-20T10:47:59.043Z,13.80
2019-04-20T10:50:32.148Z,13.80
2019-04-20T10:53:03.874Z,13.80
2019-04-20T10:55:35.529Z,13.80
2019-04-20T10:58:07.325Z,13.80
2019-04-20T11:00:44.120Z,13.80
2019-04-20T11:03:17.624Z,13.80
2019-04-20T11:05:50.923Z,13.80
2019-04-20T11:08:22.456Z,13.80
2019-04-20T11:11:03.473Z,13.80
2019-04-20T11:13:27.659Z,13.80
2019-04-20T11:16:00.057Z,13.80
2019-04-20T11:18:31.639Z,13.90
2019-04-20T11:21:03.641Z,13.80
2019-04-20T11:23:36.658Z,13.90
2019-04-20T11:26:08.610Z,13.90
2019-04-20T11:28:40.054Z,13.90
2019-04-20T11:31:12.491Z,13.90
2019-04-20T11:33:43.856Z,13.90
2019-04-20T11:36:17.150Z,13.80
2019-04-20T11:38:49.067Z,13.90
2019-04-20T11:41:25.668Z,13.90
2019-04-20T11:43:53.519Z,13.80
2019-04-20T11:46:26.874Z,13.80
2019-04-20T11:48:59.369Z,13.90
2019-04-20T11:51:31.774Z,13.90
2019-04-20T11:54:04.203Z,13.90
2019-04-20T11:56:40.776Z,13.80
2019-04-20T11:59:09.803Z,13.90
2019-04-20T12:02:07.374Z,13.90
2019-04-20T12:04:59.895Z,13.90
2019-04-20T12:07:22.631Z,13.90
2019-04-20T12:09:58.519Z,13.90
2019-04-20T12:12:36.775Z,13.90
2019-04-20T12:15:01.243Z,13.90
2019-04-20T12:17:33.496Z,13.90
2019-04-20T12:20:07.987Z,13.90
2019-04-20T12:22:40.077Z,13.90
2019-04-20T12:25:12.070Z,13.90
2019-04-20T12:27:48.818Z,13.90
2019-04-20T12:30:17.506Z,13.90
2019-04-20T12:32:55.119Z,13.90
2019-04-20T12:35:22.745Z,13.90
2019-04-20T12:37:54.974Z,13.90
2019-04-20T12:40:28.037Z,13.90
2019-04-20T12:43:01.260Z,13.90
2019-04-20T12:45:33.542Z,13.90
2019-04-20T12:48:05.802Z,13.90
2019-04-20T12:50:37.430Z,13.90
2019-04-20T12:53:08.975Z,13.90
2019-04-20T12:55:40.910Z,14.00
2019-04-20T12:58:12.611Z,14.00
2019-04-20T13:00:49.749Z,14.00
2019-04-20T13:03:21.523Z,13.90
2019-04-20T13:05:54.295Z,13.90
2019-04-20T13:08:33.675Z,13.90
2019-04-20T13:11:13.048Z,13.90
2019-04-20T13:14:06.434Z,14.00
2019-04-20T13:16:38.836Z,13.90
2019-04-20T13:19:11.114Z,13.90
2019-04-20T13:21:42.993Z,13.90
2019-04-20T13:24:13.551Z,14.00
2019-04-20T13:26:44.876Z,14.00
2019-04-20T13:29:17.154Z,14.00
2019-04-20T13:31:52.005Z,14.00
2019-04-20T13:34:22.511Z,14.00
2019-04-20T13:36:52.633Z,14.00
2019-04-20T13:39:24.811Z,14.00
2019-04-20T13:42:08.082Z,14.00
2019-04-20T13:44:30.703Z,14.00
2019-04-20T13:47:03.111Z,13.90
2019-04-20T13:49:36.808Z,14.00
2019-04-20T13:52:08.757Z,14.00
2019-04-20T13:54:40.185Z,14.00
2019-04-20T13:57:13.534Z,14.00
2019-04-20T13:59:48.997Z,13.90
2019-04-20T14:02:29.274Z,14.00
2019-04-20T14:05:04.796Z,14.00
2019-04-20T14:07:37.579Z,14.00
2019-04-20T14:10:09.259Z,14.00
2019-04-20T14:12:53.619Z,14.00
2019-04-20T14:15:15.285Z,14.00
2019-04-20T14:17:46.965Z,14.00
2019-04-20T14:20:21.623Z,14.00
2019-04-20T14:22:52.463Z,14.00
2019-04-20T14:25:24.904Z,14.00
2019-04-20T14:27:57.295Z,14.00
2019-04-20T14:30:29.127Z,14.00
2019-04-20T14:33:01.008Z,14.00
2019-04-20T14:35:32.659Z,14.00
2019-04-20T14:38:04.174Z,14.00
2019-04-20T14:40:36.657Z,14.00
2019-04-20T14:43:08.945Z,14.00
2019-04-20T14:45:40.865Z,14.00
2019-04-20T14:48:13.694Z,14.00
2019-04-20T14:50:45.634Z,14.00
2019-04-20T14:53:17.689Z,14.00
2019-04-20T14:55:49.397Z,13.90
2019-04-20T14:58:40.201Z,14.00
2019-04-20T15:01:24.764Z,14.00
2019-04-20T15:04:02.879Z,14.00
2019-04-20T15:06:29.773Z,14.00
2019-04-20T15:09:03.057Z,14.00
2019-04-20T15:11:38.177Z,14.00
2019-04-20T15:14:11.053Z,14.00
2019-04-20T15:16:42.721Z,14.00
2019-04-20T15:19:39.131Z,14.00
2019-04-20T15:22:27.736Z,14.00
2019-04-20T15:24:59.957Z,14.00
2019-04-20T15:27:31.636Z,14.00
2019-04-20T15:30:04.519Z,14.00
2019-04-20T15:32:36.828Z,14.00
2019-04-20T15:35:09.093Z,14.00
2019-04-20T15:37:41.274Z,14.00
2019-04-20T15:40:14.994Z,14.00
2019-04-20T15:42:56.159Z,14.00
2019-04-20T15:45:19.401Z,14.00
2019-04-20T15:47:52.136Z,14.00
2019-04-20T15:50:23.962Z,14.00
2019-04-20T15:52:57.332Z,14.00
2019-04-20T15:55:33.568Z,14.00
2019-04-20T15:58:04.550Z,14.00
2019-04-20T16:00:34.353Z,14.00
2019-04-20T16:03:19.179Z,14.00
2019-04-20T16:05:56.744Z,14.00
2019-04-20T16:08:38.927Z,14.00
2019-04-20T16:11:11.231Z,14.00
2019-04-20T16:13:47.557Z,14.00
2019-04-20T16:16:16.245Z,14.00
2019-04-20T16:18:48.564Z,14.00
2019-04-20T16:21:24.559Z,14.00
2019-04-20T16:24:08.916Z,14.00
2019-04-20T16:26:59.784Z,14.00
2019-04-20T16:29:31.711Z,14.00
2019-04-20T16:32:04.647Z,14.00
2019-04-20T16:34:37.166Z,14.00
2019-04-20T16:37:10.574Z,14.00
2019-04-20T16:39:42.889Z,14.00
2019-04-20T16:42:16.193Z,14.10
2019-04-20T16:44:49.170Z,14.10
2019-04-20T16:47:21.893Z,14.10
2019-04-20T16:49:55.060Z,14.00
2019-04-20T16:52:26.840Z,14.00
2019-04-20T16:54:59.470Z,14.00
2019-04-20T16:57:31.881Z,14.00
2019-04-20T17:00:03.198Z,14.00
2019-04-20T17:02:36.212Z,14.00
2019-04-20T17:05:09.201Z,14.00
2019-04-20T17:07:44.763Z,14.00
2019-04-20T17:10:17.927Z,14.00
2019-04-20T17:12:51.357Z,14.00
2019-04-20T17:15:23.690Z,14.00
2019-04-20T17:17:58.576Z,14.00
2019-04-20T17:20:29.305Z,14.00
2019-04-20T17:23:03.858Z,14.00
2019-04-20T17:25:35.462Z,14.00
2019-04-20T17:28:35.336Z,14.00
2019-04-20T17:31:15.569Z,14.00
2019-04-20T17:34:04.654Z,14.00
2019-04-20T17:36:32.721Z,14.00
2019-04-20T17:39:06.746Z,14.00
2019-04-20T17:41:59.288Z,14.00
2019-04-20T17:44:24.707Z,14.00
2019-04-20T17:46:58.201Z,14.00
2019-04-20T17:49:29.389Z,14.00
2019-04-20T17:52:12.595Z,14.00
2019-04-20T17:54:37.847Z,14.00
2019-04-20T17:57:11.082Z,14.00
2019-04-20T17:59:53.288Z,14.00
2019-04-20T18:02:53.545Z,14.00
2019-04-20T18:05:41.747Z,14.00
2019-04-20T18:08:16.508Z,13.90
2019-04-20T18:10:37.850Z,14.00
2019-04-20T18:13:07.041Z,14.20
2019-04-20T18:15:45.392Z,15.30
2019-04-20T18:18:41.701Z,16.70
2019-04-20T18:21:14.911Z,17.90
2019-04-20T18:23:49.573Z,18.00
2019-04-20T18:26:37.855Z,17.50
2019-04-20T18:29:12.278Z,16.60
2019-04-20T18:31:33.578Z,15.90
2019-04-20T18:34:20.261Z,15.50
2019-04-20T18:36:50.782Z,15.30
2019-04-20T18:39:32.977Z,15.10
2019-04-20T18:42:06.471Z,15.10
2019-04-20T18:44:46.209Z,15.00
2019-04-20T18:47:23.865Z,14.90
2019-04-20T18:49:46.637Z,14.80
2019-04-20T18:52:09.524Z,14.70
2019-04-20T18:54:43.882Z,14.70
2019-04-20T18:57:18.021Z,14.60
2019-04-20T18:59:52.110Z,14.60
2019-04-20T19:02:26.541Z,14.50
2019-04-20T19:04:53.608Z,14.50
2019-04-20T19:07:25.814Z,14.50
2019-04-20T19:10:02.619Z,14.50
2019-04-20T19:12:42.492Z,14.40
2019-04-20T19:15:43.883Z,14.40
2019-04-20T19:18:18.340Z,14.40
2019-04-20T19:20:43.694Z,14.40
2019-04-20T19:23:16.765Z,14.40
2019-04-20T19:25:48.066Z,14.40
2019-04-20T19:28:25.696Z,14.40
2019-04-20T19:31:06.375Z,14.30
2019-04-20T19:33:42.188Z,14.30
2019-04-20T19:36:15.124Z,14.30
2019-04-20T19:38:45.611Z,14.30
2019-04-20T19:41:24.245Z,14.30
2019-04-20T19:43:49.019Z,14.30
2019-04-20T19:48:56.042Z,14.30
2019-04-20T19:51:43.488Z,14.30
2019-04-20T19:54:13.159Z,14.30
2019-04-20T19:56:42.583Z,14.30
2019-04-20T19:59:13.655Z,14.30
2019-04-20T20:01:33.392Z,14.40
2019-04-20T20:04:08.222Z,14.30
2019-04-20T20:06:46.038Z,14.40
2019-04-20T20:09:14.289Z,14.40
2019-04-20T20:11:46.768Z,14.30
2019-04-20T20:14:30.108Z,14.40
2019-04-20T20:17:08.441Z,14.40
2019-04-20T20:19:40.574Z,14.40
2019-04-20T20:22:10.380Z,15.00
2019-04-20T20:24:33.371Z,15.80
2019-04-20T20:27:12.781Z,16.80
2019-04-20T20:29:51.884Z,16.90
2019-04-20T20:32:21.375Z,16.70
2019-04-20T20:34:54.413Z,16.50
2019-04-20T20:37:25.358Z,16.30
2019-04-20T20:40:02.257Z,16.10
2019-04-20T20:42:34.077Z,16.00
2019-04-20T20:45:12.017Z,15.90
2019-04-20T20:47:49.072Z,15.70
2019-04-20T20:50:25.586Z,15.60
2019-04-20T20:52:49.645Z,15.50
2019-04-20T20:55:24.683Z,15.40
2019-04-20T20:58:01.163Z,15.20
2019-04-20T21:00:34.365Z,15.20
2019-04-20T21:03:01.731Z,15.10
2019-04-20T21:05:29.444Z,15.10
2019-04-20T21:08:01.659Z,15.10
2019-04-20T21:10:37.562Z,15.00
2019-04-20T21:13:10.261Z,15.00
2019-04-20T21:15:40.581Z,14.90
2019-04-20T21:18:33.787Z,14.90
2019-04-20T21:21:02.046Z,14.90
2019-04-20T21:23:32.871Z,14.90
2019-04-20T21:26:12.823Z,14.80
2019-04-20T21:28:43.729Z,14.70
2019-04-20T21:31:20.417Z,14.80
2019-04-20T21:33:49.077Z,14.70
2019-04-20T21:36:24.612Z,14.70
2019-04-20T21:38:53.943Z,14.70
2019-04-20T21:41:27.486Z,14.60
2019-04-20T21:43:59.968Z,14.50
2019-04-20T21:46:39.898Z,14.50
2019-04-20T21:49:18.204Z,14.50
2019-04-20T21:51:47.559Z,14.60
2019-04-20T21:54:12.114Z,15.30
2019-04-20T21:56:49.841Z,16.00
2019-04-20T21:59:24.146Z,16.90
2019-04-20T22:01:59.843Z,17.00
2019-04-20T22:04:25.579Z,16.80
2019-04-20T22:06:58.225Z,16.50
2019-04-20T22:09:34.446Z,16.30
2019-04-20T22:12:03.440Z,16.00
2019-04-20T22:14:34.026Z,15.80
2019-04-20T22:17:05.596Z,15.60
2019-04-20T22:19:45.840Z,15.40
2019-04-20T22:22:22.387Z,15.30
2019-04-20T22:24:57.843Z,15.30
2019-04-20T22:27:23.695Z,15.20
2019-04-20T22:29:50.325Z,15.10
2019-04-20T22:32:23.532Z,15.00
2019-04-20T22:35:01.374Z,14.90
2019-04-20T22:37:36.645Z,14.90
2019-04-20T22:40:11.812Z,14.80
2019-04-20T22:42:46.549Z,14.70
2019-04-20T22:45:17.029Z,14.60
2019-04-20T22:47:52.972Z,14.60
2019-04-20T22:50:40.022Z,14.50
2019-04-20T22:53:14.155Z,14.50
2019-04-20T22:55:57.733Z,14.40
2019-04-20T22:58:21.131Z,14.30
2019-04-20T23:00:42.143Z,14.30
2019-04-20T23:03:09.115Z,14.30
2019-04-20T23:05:40.652Z,14.20
2019-04-20T23:08:12.938Z,14.10
2019-04-20T23:10:46.853Z,14.10
2019-04-20T23:13:21.160Z,14.10
2019-04-20T23:15:56.476Z,14.10
2019-04-20T23:18:26.297Z,14.10
2019-04-20T23:21:01.336Z,14.10
2019-04-20T23:23:32.207Z,14.10
2019-04-20T23:26:05.164Z,14.10
2019-04-20T23:28:40.078Z,14.10
2019-04-20T23:31:15.215Z,14.10
2019-04-20T23:33:43.619Z,14.00
2019-04-20T23:36:19.271Z,13.90
2019-04-20T23:38:54.160Z,13.90
2019-04-20T23:41:23.835Z,13.80
2019-04-20T23:44:04.185Z,13.70
2019-04-20T23:47:04.584Z,13.60
2019-04-20T23:49:38.133Z,13.60
2019-04-20T23:52:31.656Z,13.60
2019-04-20T23:54:38.639Z,13.60
2019-04-20T23:57:11.318Z,13.60
2019-04-20T23:59:46.289Z,13.70
